Time;durP1;ratioP1;P1;durP2;ratioP2;P2;SDS_P1;SDS_P2;PMS_P1;PMS_P2;Temp;Humidity;BMP_temperature;BMP_pressure;BME280_temperature;BME280_humidity;BME280_pressure;Samples;Min_cycle;Max_cycle;Signal;HPM_P1;HPM_P2
2022/12/25 00:00:26;;;;;;;108.38;24.88;;;5.10;99.90;;;;;;5092644;28;20048;-44
2022/12/25 00:02:52;;;;;;;102.90;24.08;;;;;;;;;;5090024;28;20108;-45
2022/12/25 00:05:18;;;;;;;96.38;24.88;;;;;;;;;;5090633;28;20043;-46
2022/12/25 00:07:44;;;;;;;113.55;25.50;;;;;;;;;;5091508;28;20132;-43
2022/12/25 00:10:10;;;;;;;121.90;26.25;;;;;;;;;;5092080;28;20077;-45
2022/12/25 00:12:37;;;;;;;98.10;23.63;;;;;;;;;;5091389;28;20189;-45
2022/12/25 00:15:03;;;;;;;88.15;22.00;;;4.80;99.90;;;;;;5090285;28;20713;-47
2022/12/25 00:17:29;;;;;;;95.47;24.05;;;;;;;;;;5095024;28;20043;-44
2022/12/25 00:19:55;;;;;;;115.68;26.88;;;;;;;;;;5095412;28;20059;-45
2022/12/25 00:22:21;;;;;;;99.72;24.17;;;;;;;;;;5094351;27;20192;-44
2022/12/25 00:24:47;;;;;;;109.78;25.02;;;4.70;99.90;;;;;;5095370;27;20307;-44
2022/12/25 00:27:13;;;;;;;100.80;24.40;;;4.70;99.90;;;;;;5094922;27;20311;-42
2022/12/25 00:29:39;;;;;;;105.80;23.25;;;4.80;99.90;;;;;;5095595;28;20512;-45
2022/12/25 00:32:05;;;;;;;85.25;23.90;;;4.80;99.90;;;;;;5094970;28;20063;-45
2022/12/25 00:34:31;;;;;;;110.63;26.25;;;;;;;;;;5094688;28;20044;-45
2022/12/25 00:36:57;;;;;;;127.90;27.75;;;;;;;;;;5094811;28;20363;-43
2022/12/25 00:39:23;;;;;;;107.57;26.13;;;;;;;;;;5095222;28;20035;-44
2022/12/25 00:44:35;;;;;;;92.55;25.35;;;;;;;;;;5095900;27;20116;-43
2022/12/25 00:47:01;;;;;;;111.50;27.50;;;;;;;;;;5094802;27;20123;-46
2022/12/25 00:49:27;;;;;;;111.97;27.60;;;;;;;;;;5093088;27;20142;-44
2022/12/25 00:51:53;;;;;;;135.98;31.23;;;;;;;;;;5095427;27;20048;-43
2022/12/25 00:54:20;;;;;;;140.63;33.35;;;;;;;;;;5094873;27;20235;-44
2022/12/25 00:56:46;;;;;;;147.60;34.75;;;;;;;;;;5093938;27;20171;-46
2022/12/25 00:59:12;;;;;;;173.13;35.63;;;5.50;99.90;;;;;;5093931;27;20058;-45
2022/12/25 01:01:38;;;;;;;195.50;37.53;;;5.50;99.90;;;;;;5093784;28;20064;-44
2022/12/25 01:04:05;;;;;;;201.60;37.80;;;5.40;99.90;;;;;;5093259;27;20043;-45
2022/12/25 01:06:31;;;;;;;173.68;36.20;;;;;;;;;;5093693;27;20130;-44
2022/12/25 01:11:42;;;;;;;206.18;37.75;;;;;;;;;;5094446;27;20047;-46
2022/12/25 01:14:08;;;;;;;175.90;37.17;;;;;;;;;;5093066;27;20039;-45
2022/12/25 01:16:34;;;;;;;206.88;39.40;;;;;;;;;;5093057;27;20039;-46
2022/12/25 01:19:01;;;;;;;245.95;42.80;;;;;;;;;;5093927;27;20046;-45
2022/12/25 01:21:26;;;;;;;164.63;35.13;;;5.70;99.90;;;;;;5094326;28;20495;-45
2022/12/25 01:23:53;;;;;;;248.15;42.20;;;5.80;99.90;;;;;;5093052;27;20031;-43
2022/12/25 01:26:21;;;;;;;238.88;42.10;;;5.70;99.90;;;;;;5093757;27;20847;-43
2022/12/25 01:28:48;;;;;;;200.57;38.33;;;5.80;99.90;;;;;;5092165;27;20628;-45
2022/12/25 01:31:16;;;;;;;224.82;42.50;;;5.70;99.90;;;;;;5094000;28;20028;-47
2022/12/25 01:33:42;;;;;;;153.02;35.53;;;5.80;99.90;;;;;;5093251;28;20086;-44
2022/12/25 01:36:34;;;;;;;156.43;35.97;;;5.70;99.90;;;;;;5093288;27;20032;-43
2022/12/25 01:39:00;;;;;;;111.37;29.47;;;5.80;99.90;;;;;;5091603;28;20052;-44
2022/12/25 01:41:26;;;;;;;118.15;32.47;;;5.80;99.90;;;;;;5093586;27;20050;-47
2022/12/25 01:44:35;;;;;;;107.18;30.40;;;5.90;99.90;;;;;;5095257;28;20044;-44
2022/12/25 01:47:03;;;;;;;119.38;30.95;;;6.00;99.90;;;;;;5094475;27;20036;-45
2022/12/25 01:49:30;;;;;;;112.60;32.20;;;5.90;99.90;;;;;;5095024;27;20044;-43
2022/12/25 01:52:01;;;;;;;107.80;31.20;;;5.90;99.90;;;;;;5093799;28;20122;-45
2022/12/25 01:54:38;;;;;;;127.65;32.53;;;5.80;99.90;;;;;;5093213;28;20164;-44
2022/12/25 01:57:08;;;;;;;112.38;30.33;;;6.00;99.90;;;;;;5094160;27;20051;-46
2022/12/25 01:59:34;;;;;;;135.68;33.42;;;6.00;99.90;;;;;;5093384;27;20662;-46
2022/12/25 02:01:59;;;;;;;126.43;32.03;;;6.00;99.90;;;;;;5092743;27;20097;-44
2022/12/25 02:04:38;;;;;;;118.85;33.33;;;6.00;99.90;;;;;;5093211;27;20764;-44
2022/12/25 02:07:19;;;;;;;110.18;31.15;;;6.20;99.90;;;;;;5092961;27;20940;-49
2022/12/25 02:09:45;;;;;;;118.30;32.50;;;6.20;99.90;;;;;;5091893;28;20715;-46
2022/12/25 02:12:44;;;;;;;128.93;34.58;;;6.20;99.90;;;;;;5093752;27;20066;-44
2022/12/25 02:15:30;;;;;;;106.53;31.90;;;6.30;99.90;;;;;;5087868;27;20445;-46
2022/12/25 02:18:17;;;;;;;107.25;30.45;;;6.30;99.90;;;;;;5092373;27;20399;-43
2022/12/25 02:21:06;;;;;;;106.93;32.25;;;6.40;99.90;;;;;;5091291;28;20929;-48
2022/12/25 02:23:47;;;;;;;111.93;33.10;;;6.30;99.90;;;;;;5092393;27;20055;-47
2022/12/25 02:26:33;;;;;;;106.53;31.95;;;6.30;99.90;;;;;;5092429;27;20036;-43
2022/12/25 02:29:21;;;;;;;105.93;33.45;;;6.40;99.90;;;;;;5089717;27;20051;-48
2022/12/25 02:32:14;;;;;;;113.72;34.78;;;6.50;99.90;;;;;;5090558;28;20583;-45
2022/12/25 02:34:40;;;;;;;94.00;29.92;;;;;;;;;;5091139;28;20051;-45
2022/12/25 02:37:22;;;;;;;101.00;34.42;;;6.60;99.90;;;;;;5090964;28;20039;-43
2022/12/25 02:40:14;;;;;;;105.43;33.63;;;6.50;99.90;;;;;;5090942;27;20040;-44
2022/12/25 03:08:20;;;;;;;88.05;31.67;;;6.80;99.90;;;;;;5092076;28;20583;-45
2022/12/25 03:13:40;;;;;;;;;;;6.80;99.90;;;;;;5093145;28;20052;-45
2022/12/25 03:18:54;;;;;;;88.07;33.88;;;6.90;99.90;;;;;;5091867;28;20058;-45
2022/12/25 03:26:54;;;;;;;91.85;34.17;;;6.90;99.90;;;;;;5091406;28;20039;-44
2022/12/25 03:32:26;;;;;;;89.22;33.03;;;6.90;99.90;;;;;;5092007;28;20154;-46
2022/12/25 04:36:07;;;;;;;93.10;31.25;;;6.80;99.90;;;;;;5051341;28;20302;-48
2022/12/25 04:36:50;;;;;;;111.53;36.42;;;7.30;99.90;;;;;;5093717;27;20035;-46
2022/12/25 04:39:15;;;;;;;113.50;36.83;;;7.20;99.90;;;;;;5092742;27;20050;-47
2022/12/25 04:41:41;;;;;;;101.82;34.85;;;7.40;99.90;;;;;;5094624;27;20128;-47
2022/12/25 04:44:08;;;;;;;126.10;37.80;;;7.40;99.90;;;;;;5093913;27;20040;-46
2022/12/25 04:46:34;;;;;;;111.43;36.05;;;8.60;99.90;;;;;;5093064;27;20050;-44
2022/12/25 04:48:59;;;;;;;132.70;38.17;;;7.30;99.90;;;;;;5094079;27;20032;-45
2022/12/25 04:51:25;;;;;;;129.27;37.53;;;7.40;99.90;;;;;;5094697;27;20063;-45
2022/12/25 04:53:52;;;;;;;115.30;36.40;;;7.30;99.90;;;;;;5093725;27;20482;-48
2022/12/25 04:56:18;;;;;;;115.55;36.15;;;7.20;99.90;;;;;;5093930;27;20039;-46
2022/12/25 04:58:45;;;;;;;113.85;37.45;;;7.20;99.90;;;;;;5094261;27;20484;-46
2022/12/25 05:01:11;;;;;;;98.25;35.03;;;9.50;99.90;;;;;;5094252;27;20047;-45
2022/12/25 05:03:37;;;;;;;117.88;35.47;;;8.50;99.90;;;;;;5090693;28;20044;-44
2022/12/25 05:06:03;;;;;;;102.03;34.13;;;7.50;99.90;;;;;;5092921;28;20043;-44
2022/12/25 05:08:31;;;;;;;115.70;33.72;;;7.60;99.90;;;;;;5093353;27;20043;-46
2022/12/25 05:10:57;;;;;;;102.25;31.55;;;7.40;99.90;;;;;;5094051;27;20049;-46
2022/12/25 05:13:22;;;;;;;101.20;34.55;;;7.70;99.90;;;;;;5093404;27;20036;-47
2022/12/25 05:15:48;;;;;;;93.05;31.13;;;7.50;99.90;;;;;;5092558;27;20039;-43
2022/12/25 05:18:14;;;;;;;104.07;35.08;;;7.60;99.90;;;;;;5093388;27;20091;-44
2022/12/25 05:20:40;;;;;;;101.18;34.08;;;8.00;99.90;;;;;;5094545;27;20032;-44
2022/12/25 05:23:06;;;;;;;100.85;34.10;;;7.70;99.90;;;;;;5094010;27;20051;-48
2022/12/25 05:25:32;;;;;;;101.22;32.10;;;7.40;99.90;;;;;;5094230;27;20058;-47
2022/12/25 05:27:57;;;;;;;99.32;32.90;;;7.60;99.90;;;;;;5093509;27;20484;-45
2022/12/25 05:30:23;;;;;;;98.20;32.78;;;7.60;99.90;;;;;;5095141;27;20044;-45
2022/12/25 05:32:49;;;;;;;114.70;37.13;;;7.80;99.90;;;;;;5094308;27;20776;-48
2022/12/25 05:35:14;;;;;;;98.88;35.20;;;7.80;99.90;;;;;;5093449;28;20293;-45
2022/12/25 05:37:40;;;;;;;105.57;32.83;;;9.20;99.90;;;;;;5094562;27;20039;-45
2022/12/25 05:40:07;;;;;;;120.40;35.75;;;7.70;99.90;;;;;;5094294;27;20046;-45
2022/12/25 05:42:33;;;;;;;111.90;35.15;;;7.80;99.90;;;;;;5093142;27;20040;-44
2022/12/25 05:44:59;;;;;;;105.78;33.55;;;9.00;99.90;;;;;;5094436;27;20149;-47
2022/12/25 05:47:24;;;;;;;101.75;33.50;;;9.20;99.90;;;;;;5093371;27;20044;-45
2022/12/25 05:49:50;;;;;;;124.18;35.25;;;7.50;99.90;;;;;;5093103;27;20047;-46
2022/12/25 05:52:16;;;;;;;128.02;37.65;;;7.80;99.90;;;;;;5093076;27;20042;-49
2022/12/25 05:54:42;;;;;;;137.05;37.78;;;8.70;99.90;;;;;;5093867;28;20143;-43
2022/12/25 05:57:08;;;;;;;123.22;37.03;;;7.70;99.90;;;;;;5094880;27;20066;-44
2022/12/25 05:59:34;;;;;;;120.70;37.75;;;8.00;99.90;;;;;;5093107;27;20539;-44
2022/12/25 06:02:00;;;;;;;123.10;35.92;;;7.60;99.90;;;;;;5092813;27;20764;-43
2022/12/25 06:04:25;;;;;;;105.20;33.88;;;7.90;99.90;;;;;;5091225;27;20100;-45
2022/12/25 06:06:52;;;;;;;114.20;36.78;;;7.90;99.90;;;;;;5093193;28;20104;-44
2022/12/25 06:09:17;;;;;;;112.85;36.72;;;7.80;99.90;;;;;;5092527;27;20035;-48
2022/12/25 06:11:44;;;;;;;122.32;37.72;;;7.80;99.90;;;;;;5092031;27;20046;-49
2022/12/25 06:14:14;;;;;;;130.95;38.15;;;7.70;99.90;;;;;;5093010;27;20121;-45
2022/12/25 06:16:40;;;;;;;129.25;38.10;;;9.60;99.90;;;;;;5092147;27;20909;-46
2022/12/25 06:19:06;;;;;;;119.00;37.20;;;7.90;99.90;;;;;;5093624;28;20046;-46
2022/12/25 06:21:32;;;;;;;104.32;37.45;;;8.10;99.90;;;;;;5091403;27;20123;-45
2022/12/25 06:24:00;;;;;;;126.93;40.08;;;7.90;99.90;;;;;;5092586;28;20047;-48
2022/12/25 06:26:27;;;;;;;110.68;37.38;;;7.70;99.90;;;;;;5091786;28;20051;-46
2022/12/25 06:28:52;;;;;;;129.65;37.25;;;7.90;99.90;;;;;;5092889;28;20032;-50
2022/12/25 06:31:21;;;;;;;124.22;38.40;;;8.10;99.90;;;;;;5091805;27;20031;-45
2022/12/25 06:33:47;;;;;;;136.27;41.05;;;7.70;99.90;;;;;;5091962;27;20068;-44
2022/12/25 06:36:18;;;;;;;132.18;38.10;;;7.70;99.90;;;;;;5092667;27;20690;-48
2022/12/25 06:38:44;;;;;;;128.80;38.92;;;8.10;99.90;;;;;;5093920;27;20032;-46
2022/12/25 06:41:16;;;;;;;118.40;37.95;;;7.70;99.90;;;;;;5093275;27;20038;-44
2022/12/25 06:43:42;;;;;;;128.27;38.42;;;7.80;99.90;;;;;;5093653;28;20583;-45
2022/12/25 06:46:10;;;;;;;127.20;39.42;;;8.80;99.90;;;;;;5091949;28;20126;-46
2022/12/25 06:48:39;;;;;;;126.57;40.10;;;7.60;99.90;;;;;;5092898;27;20039;-45
2022/12/25 06:51:05;;;;;;;129.13;37.42;;;7.90;99.90;;;;;;5092556;27;20051;-47
2022/12/25 06:53:31;;;;;;;138.82;39.58;;;9.00;99.90;;;;;;5092729;28;20042;-44
2022/12/25 06:56:09;;;;;;;114.50;37.03;;;7.70;99.90;;;;;;5093163;27;20150;-45
2022/12/25 06:58:35;;;;;;;122.88;37.67;;;7.90;99.90;;;;;;5093189;28;20044;-45
2022/12/25 07:01:13;;;;;;;117.18;37.35;;;7.80;99.90;;;;;;5093349;27;20058;-44
2022/12/25 07:03:41;;;;;;;111.40;36.38;;;7.90;99.90;;;;;;5092870;28;20449;-48
2022/12/25 07:06:06;;;;;;;119.68;36.35;;;7.50;99.90;;;;;;5072702;28;20043;-49
2022/12/25 07:08:32;;;;;;;125.72;37.10;;;7.80;99.90;;;;;;5092262;28;20385;-47
2022/12/25 07:10:58;;;;;;;120.25;36.50;;;8.70;99.90;;;;;;5090769;28;20036;-47
2022/12/25 07:13:24;;;;;;;113.80;36.63;;;7.80;99.90;;;;;;5090802;28;20096;-45
2022/12/25 07:16:01;;;;;;;107.93;36.20;;;7.70;99.90;;;;;;5091263;28;20043;-47
2022/12/25 07:18:28;;;;;;;119.97;37.95;;;9.00;99.90;;;;;;5090637;28;20089;-45
2022/12/25 07:20:54;;;;;;;137.57;38.35;;;7.70;99.90;;;;;;5090653;28;20238;-44
2022/12/25 07:23:23;;;;;;;102.38;34.83;;;7.90;99.90;;;;;;5091754;28;20043;-48
2022/12/25 07:25:57;;;;;;;108.45;34.30;;;7.70;99.90;;;;;;5092380;28;21014;-47
2022/12/25 07:28:23;;;;;;;100.65;35.20;;;7.80;99.90;;;;;;5095957;27;20036;-46
2022/12/25 07:30:49;;;;;;;109.43;36.30;;;8.40;99.90;;;;;;5094431;28;20145;-46
2022/12/25 07:33:15;;;;;;;83.65;32.85;;;8.70;99.90;;;;;;5094843;28;20047;-46
2022/12/25 07:35:41;;;;;;;93.95;32.45;;;8.00;99.90;;;;;;5095192;28;20040;-44
2022/12/25 07:38:07;;;;;;;102.50;33.83;;;8.60;99.90;;;;;;5095223;27;20047;-48
2022/12/25 07:40:33;;;;;;;101.05;33.33;;;7.90;99.90;;;;;;5096239;27;20039;-45
2022/12/25 07:42:58;;;;;;;93.30;33.60;;;7.90;99.90;;;;;;5094704;28;20046;-46
2022/12/25 07:45:24;;;;;;;91.25;33.08;;;8.00;99.90;;;;;;5095540;27;20097;-44
2022/12/25 07:47:49;;;;;;;93.50;33.97;;;7.90;99.90;;;;;;5094879;27;20043;-46
2022/12/25 07:50:16;;;;;;;91.93;32.25;;;9.00;99.90;;;;;;5095644;27;20035;-44
2022/12/25 07:52:42;;;;;;;82.88;31.40;;;7.90;99.90;;;;;;5093966;27;20054;-44
2022/12/25 07:55:08;;;;;;;87.07;33.00;;;7.90;99.90;;;;;;5093395;27;20058;-47
2022/12/25 07:57:35;;;;;;;78.50;30.70;;;8.10;99.90;;;;;;5095664;27;20526;-48
2022/12/25 08:00:04;;;;;;;81.55;29.20;;;8.00;99.90;;;;;;5093208;27;20116;-47
2022/12/25 08:02:30;;;;;;;79.93;29.38;;;7.90;99.90;;;;;;5095263;27;20079;-48
2022/12/25 08:04:56;;;;;;;69.35;29.83;;;8.00;99.90;;;;;;5095792;27;20457;-46
2022/12/25 08:07:22;;;;;;;71.65;29.88;;;7.80;99.90;;;;;;5095556;27;20043;-47
2022/12/25 08:09:48;;;;;;;66.82;29.45;;;7.90;99.90;;;;;;5095306;27;20040;-47
2022/12/25 08:12:14;;;;;;;65.68;28.63;;;8.00;99.90;;;;;;5095005;27;20218;-46
2022/12/25 08:14:40;;;;;;;79.05;29.05;;;7.90;99.90;;;;;;5093226;27;20584;-45
2022/12/25 08:17:06;;;;;;;65.18;27.98;;;8.20;99.90;;;;;;5095263;27;20043;-47
2022/12/25 08:19:32;;;;;;;65.95;27.17;;;8.10;99.90;;;;;;5094861;27;20043;-49
2022/12/25 08:21:58;;;;;;;74.22;28.80;;;9.30;99.90;;;;;;5095543;27;20039;-49
2022/12/25 08:24:24;;;;;;;61.47;27.75;;;8.00;99.90;;;;;;5093082;27;20055;-50
2022/12/25 08:26:49;;;;;;;59.72;26.58;;;8.10;99.90;;;;;;5093706;27;20047;-45
2022/12/25 08:29:15;;;;;;;66.25;27.50;;;8.40;99.90;;;;;;5093985;27;20081;-44
2022/12/25 08:31:43;;;;;;;58.65;25.50;;;8.00;99.90;;;;;;5093185;27;20047;-46
2022/12/25 08:34:09;;;;;;;59.35;26.70;;;8.00;99.90;;;;;;5093738;27;20486;-48
2022/12/25 08:36:35;;;;;;;52.60;23.95;;;8.00;99.90;;;;;;5092315;27;20090;-45
2022/12/25 08:39:01;;;;;;;59.80;25.05;;;8.30;99.90;;;;;;5093789;27;20040;-49
2022/12/25 08:41:27;;;;;;;54.90;23.08;;;8.20;99.90;;;;;;5094578;27;20443;-46
2022/12/25 08:43:53;;;;;;;51.83;23.45;;;8.80;99.90;;;;;;5093719;27;20116;-48
2022/12/25 08:46:19;;;;;;;53.10;24.38;;;8.20;99.90;;;;;;5093046;28;20067;-47
2022/12/25 08:48:46;;;;;;;50.42;22.55;;;9.00;99.90;;;;;;5092084;27;20028;-46
2022/12/25 08:51:15;;;;;;;43.28;20.92;;;8.50;99.90;;;;;;5094242;27;20048;-45
2022/12/25 08:53:42;;;;;;;42.95;23.17;;;8.20;99.90;;;;;;5094330;27;20067;-47
2022/12/25 08:56:07;;;;;;;40.50;20.13;;;8.30;99.90;;;;;;5092517;27;20044;-46
2022/12/25 08:58:34;;;;;;;40.45;20.67;;;8.20;99.90;;;;;;5094749;27;20396;-44
2022/12/25 09:01:01;;;;;;;36.92;19.60;;;8.20;99.90;;;;;;5092229;27;20480;-47
2022/12/25 09:03:26;;;;;;;37.85;20.02;;;8.40;99.90;;;;;;5093101;28;20189;-45
2022/12/25 09:05:53;;;;;;;43.22;19.85;;;8.40;99.90;;;;;;5093001;27;20035;-49
2022/12/25 09:08:20;;;;;;;43.65;20.50;;;8.20;99.90;;;;;;5093223;27;20042;-47
2022/12/25 09:10:47;;;;;;;38.92;19.70;;;8.30;99.90;;;;;;5093863;28;20039;-45
2022/12/25 09:13:13;;;;;;;40.05;19.27;;;8.30;99.90;;;;;;5094079;27;20070;-47
2022/12/25 09:15:39;;;;;;;39.55;19.15;;;8.60;99.90;;;;;;5092972;28;20134;-45
2022/12/25 09:18:05;;;;;;;35.42;18.65;;;8.40;99.90;;;;;;5093694;27;20042;-43
2022/12/25 09:20:31;;;;;;;44.35;18.08;;;10.00;99.90;;;;;;5093785;27;20050;-46
2022/12/25 09:22:57;;;;;;;33.67;16.60;;;8.30;99.90;;;;;;5093742;27;20411;-45
2022/12/25 09:25:23;;;;;;;39.05;17.85;;;8.30;99.90;;;;;;5093353;27;20031;-49
2022/12/25 09:27:48;;;;;;;32.80;17.65;;;8.20;99.90;;;;;;5094800;27;20681;-44
2022/12/25 09:30:14;;;;;;;34.47;17.15;;;8.60;99.90;;;;;;5095781;27;20038;-44
2022/12/25 09:32:40;;;;;;;40.75;18.05;;;8.30;99.90;;;;;;5094294;27;20492;-44
2022/12/25 09:35:07;;;;;;;33.33;16.67;;;8.20;99.90;;;;;;5094723;27;20036;-44
2022/12/25 09:37:33;;;;;;;29.75;16.92;;;8.40;99.90;;;;;;5094245;27;20047;-44
2022/12/25 09:39:58;;;;;;;34.15;17.70;;;8.20;99.90;;;;;;5092687;28;20032;-45
2022/12/25 09:42:27;;;;;;;37.47;16.63;;;9.70;99.90;;;;;;5093113;27;20039;-49
2022/12/25 09:45:18;;;;;;;30.27;17.10;;;8.20;99.90;;;;;;5093022;27;20456;-45
2022/12/25 09:47:47;;;;;;;30.42;16.00;;;8.90;99.90;;;;;;5092469;27;20048;-47
2022/12/25 09:50:18;;;;;;;32.58;15.35;;;8.60;99.90;;;;;;5093161;27;20191;-45
2022/12/25 09:53:03;;;;;;;31.67;15.50;;;8.30;99.90;;;;;;5093056;27;20271;-45
2022/12/25 09:55:33;;;;;;;35.20;16.00;;;8.30;99.90;;;;;;5092044;27;20050;-47
2022/12/25 09:58:01;;;;;;;31.98;16.73;;;8.60;99.90;;;;;;5091800;27;20060;-49
2022/12/25 10:00:37;;;;;;;23.58;14.68;;;8.30;99.90;;;;;;5093377;28;20130;-44
2022/12/25 10:03:14;;;;;;;30.48;15.40;;;8.90;99.90;;;;;;5092382;27;20063;-45
2022/12/25 10:05:52;;;;;;;28.05;15.77;;;8.30;99.90;;;;;;5091281;28;20084;-46
2022/12/25 10:08:35;;;;;;;28.92;14.60;;;8.30;99.90;;;;;;5093534;27;20137;-45
2022/12/25 10:11:38;;;;;;;25.95;13.27;;;8.20;99.90;;;;;;5090971;27;20032;-46
2022/12/25 10:14:10;;;;;;;24.63;14.40;;;8.40;99.90;;;;;;5092804;27;20043;-48
2022/12/25 10:16:55;;;;;;;26.77;13.65;;;9.20;99.90;;;;;;5091686;27;20051;-44
2022/12/25 10:19:43;;;;;;;24.63;13.27;;;8.40;99.90;;;;;;5092649;27;20040;-48
2022/12/25 10:22:25;;;;;;;18.75;12.10;;;8.40;99.90;;;;;;5092483;28;20144;-45
2022/12/25 10:24:55;;;;;;;25.05;12.95;;;8.20;99.90;;;;;;5089768;28;20161;-48
2022/12/25 10:27:29;;;;;;;24.35;12.27;;;8.40;99.90;;;;;;5091479;27;20052;-46
2022/12/25 10:29:55;;;;;;;22.77;12.40;;;8.40;99.90;;;;;;5091707;27;20559;-45
2022/12/25 10:32:21;;;;;;;22.50;12.82;;;8.60;99.90;;;;;;5090962;28;20057;-45
2022/12/25 10:34:47;;;;;;;22.17;12.63;;;9.00;99.90;;;;;;5092291;27;20922;-45
2022/12/25 10:37:13;;;;;;;20.27;11.50;;;8.40;99.90;;;;;;5091832;27;20046;-44
2022/12/25 10:39:39;;;;;;;25.73;12.60;;;8.60;99.90;;;;;;5091405;28;20039;-44
2022/12/25 10:42:26;;;;;;;23.17;12.57;;;8.50;99.90;;;;;;5092738;28;20075;-48
2022/12/25 10:45:04;;;;;;;20.95;12.65;;;8.50;99.90;;;;;;5093957;27;20604;-45
2022/12/25 10:47:39;;;;;;;22.35;12.30;;;8.40;99.90;;;;;;5092504;28;20040;-44
2022/12/25 10:50:22;;;;;;;30.27;13.93;;;8.60;99.90;;;;;;5093965;28;20508;-45
2022/12/25 10:53:08;;;;;;;26.10;11.63;;;8.50;99.90;;;;;;5093990;27;20050;-45
2022/12/25 10:55:34;;;;;;;20.08;11.68;;;8.40;99.90;;;;;;5092756;28;20162;-45
2022/12/25 10:58:01;;;;;;;19.33;12.25;;;8.50;99.90;;;;;;5092503;28;20126;-48
2022/12/25 11:00:31;;;;;;;23.88;13.27;;;8.40;99.90;;;;;;5092749;27;20048;-44
2022/12/25 11:02:57;;;;;;;24.15;12.20;;;8.50;99.90;;;;;;5092811;28;20050;-49
2022/12/25 11:05:34;;;;;;;24.95;12.10;;;8.60;99.90;;;;;;5091005;28;20089;-48
2022/12/25 11:08:01;;;;;;;21.95;11.82;;;8.60;99.90;;;;;;5090530;27;20069;-45
2022/12/25 11:10:57;;;;;;;25.15;12.18;;;8.50;99.90;;;;;;5092099;28;20230;-45
2022/12/25 11:13:26;;;;;;;20.23;11.07;;;8.70;99.90;;;;;;5091710;28;20039;-45
2022/12/25 11:16:23;;;;;;;21.65;13.20;;;8.60;99.90;;;;;;5091663;28;20086;-45
2022/12/25 11:18:51;;;;;;;17.92;11.68;;;8.70;99.90;;;;;;5090892;28;20075;-48
2022/12/25 11:21:17;;;;;;;20.40;11.90;;;8.80;99.90;;;;;;5092395;28;20086;-45
2022/12/25 11:23:48;;;;;;;20.75;11.25;;;8.70;99.90;;;;;;5092000;28;20079;-45
2022/12/25 11:26:16;;;;;;;26.80;12.17;;;8.60;99.90;;;;;;5091914;28;20067;-45
2022/12/25 11:28:44;;;;;;;18.75;10.60;;;8.60;99.90;;;;;;5092037;28;20290;-48
2022/12/25 11:31:18;;;;;;;21.02;10.90;;;8.70;99.90;;;;;;5091503;28;21415;-45
2022/12/25 11:34:01;;;;;;;26.55;10.68;;;8.60;99.90;;;;;;5091552;28;20043;-45
2022/12/25 11:36:44;;;;;;;20.30;10.05;;;8.40;99.90;;;;;;5091793;28;20044;-45
2022/12/25 11:39:29;;;;;;;18.45;10.25;;;8.70;99.90;;;;;;5091440;28;20104;-46
2022/12/25 11:42:01;;;;;;;23.60;10.63;;;8.60;99.90;;;;;;5091788;28;20130;-45
2022/12/25 11:45:02;;;;;;;19.00;10.80;;;8.60;99.90;;;;;;5091368;28;20055;-44
2022/12/25 11:47:57;;;;;;;17.60;9.75;;;8.80;99.90;;;;;;5089820;28;20044;-45
2022/12/25 11:50:40;;;;;;;19.20;9.68;;;8.60;99.90;;;;;;5091965;28;20036;-44
2022/12/25 11:53:18;;;;;;;20.17;11.45;;;8.50;99.90;;;;;;5091455;28;20071;-47
2022/12/25 11:55:59;;;;;;;19.63;10.93;;;9.90;99.90;;;;;;5092557;28;20043;-48
2022/12/25 11:58:53;;;;;;;19.70;10.18;;;8.30;99.90;;;;;;5093216;28;20650;-45
2022/12/25 12:01:33;;;;;;;22.35;10.15;;;8.30;99.90;;;;;;5083281;28;20044;-44
2022/12/25 12:04:01;;;;;;;22.95;9.45;;;8.40;99.90;;;;;;5092987;28;20374;-44
2022/12/25 12:06:41;;;;;;;16.42;9.50;;;8.50;99.90;;;;;;5093218;28;20059;-45
2022/12/25 12:09:25;;;;;;;18.70;9.85;;;8.50;99.90;;;;;;5093948;28;20452;-48
2022/12/25 12:12:32;;;;;;;24.13;9.35;;;10.30;99.90;;;;;;5094634;27;20434;-45
2022/12/25 12:15:17;;;;;;;22.90;10.30;;;8.70;99.90;;;;;;5098371;27;20440;-46
2022/12/25 12:17:42;;;;;;;19.65;10.05;;;8.60;99.90;;;;;;5096379;27;20201;-45
2022/12/25 12:20:31;;;;;;;19.02;9.88;;;8.50;99.90;;;;;;5095801;27;20047;-47
2022/12/25 12:22:57;;;;;;;21.23;9.25;;;8.50;99.90;;;;;;5095452;27;20243;-44
2022/12/25 12:25:24;;;;;;;18.40;9.52;;;8.40;99.90;;;;;;5093946;28;20035;-50
2022/12/25 12:27:56;;;;;;;22.52;9.80;;;8.60;99.90;;;;;;5095266;27;20105;-47
2022/12/25 12:30:23;;;;;;;22.98;9.93;;;8.40;99.90;;;;;;5095958;27;20039;-46
2022/12/25 12:32:53;;;;;;;19.45;9.88;;;8.50;99.90;;;;;;5095419;27;20046;-48
2022/12/25 12:35:21;;;;;;;19.05;9.52;;;8.50;99.90;;;;;;5094721;27;20036;-48
2022/12/25 12:37:54;;;;;;;23.85;9.98;;;8.50;99.90;;;;;;5094778;27;20192;-44
2022/12/25 12:40:25;;;;;;;16.60;10.02;;;8.90;99.90;;;;;;5094588;27;20047;-47
2022/12/25 12:42:51;;;;;;;18.70;9.57;;;8.40;99.90;;;;;;5094519;27;20067;-50
2022/12/25 12:45:19;;;;;;;21.15;10.43;;;10.50;99.90;;;;;;5094020;27;20445;-47
2022/12/25 12:47:47;;;;;;;17.08;9.45;;;8.40;99.90;;;;;;5094385;27;20838;-48
2022/12/25 12:50:27;;;;;;;17.80;9.52;;;8.60;99.90;;;;;;5094268;27;20924;-49
2022/12/25 12:52:53;;;;;;;17.88;10.50;;;8.50;99.90;;;;;;5093420;28;20051;-44
2022/12/25 12:55:29;;;;;;;19.23;9.63;;;8.50;99.90;;;;;;5092885;28;20508;-49
2022/12/25 12:58:02;;;;;;;23.55;10.50;;;8.70;99.90;;;;;;5094941;27;20031;-46
2022/12/25 13:00:47;;;;;;;18.55;9.63;;;8.50;99.90;;;;;;5094891;27;20407;-52
2022/12/25 13:03:31;;;;;;;18.20;9.05;;;8.60;99.90;;;;;;5093585;28;20052;-45
2022/12/25 13:06:02;;;;;;;17.52;9.05;;;8.60;99.90;;;;;;5094584;27;20046;-47
2022/12/25 13:08:37;;;;;;;17.40;10.20;;;8.60;99.90;;;;;;5094677;27;20047;-44
2022/12/25 13:11:16;;;;;;;19.88;9.93;;;8.60;99.90;;;;;;5094764;27;20047;-44
2022/12/25 13:13:44;;;;;;;22.75;10.38;;;8.70;99.90;;;;;;5094129;27;20053;-47
2022/12/25 13:16:20;;;;;;;18.35;9.77;;;10.60;99.90;;;;;;5094491;27;20495;-44
2022/12/25 13:18:46;;;;;;;20.50;9.13;;;8.70;99.90;;;;;;5094244;28;20039;-44
2022/12/25 13:21:17;;;;;;;16.77;9.13;;;8.60;99.90;;;;;;5095239;27;20039;-44
2022/12/25 13:23:43;;;;;;;17.98;9.60;;;8.80;99.90;;;;;;5094659;27;20056;-46
2022/12/25 13:26:15;;;;;;;18.33;8.68;;;8.50;99.90;;;;;;5096054;27;21043;-47
2022/12/25 13:28:44;;;;;;;22.60;9.90;;;8.70;99.90;;;;;;5096220;27;20040;-44
2022/12/25 13:31:12;;;;;;;17.77;9.45;;;8.70;99.90;;;;;;5096057;27;20109;-45
2022/12/25 13:33:51;;;;;;;19.25;9.40;;;8.70;99.90;;;;;;5095510;28;20532;-46
2022/12/25 13:36:17;;;;;;;17.17;9.20;;;8.60;99.90;;;;;;5094272;27;20689;-47
2022/12/25 13:38:45;;;;;;;14.60;9.02;;;9.30;99.90;;;;;;5096189;27;20039;-47
2022/12/25 13:44:29;;;;;;;15.75;8.68;;;8.70;99.90;;;;;;5096121;27;20055;-44
2022/12/25 13:46:55;;;;;;;15.27;8.63;;;8.60;99.90;;;;;;5095911;27;20043;-46
2022/12/25 13:49:23;;;;;;;19.88;8.82;;;8.60;99.90;;;;;;5093205;27;20039;-47
2022/12/25 13:51:49;;;;;;;15.80;8.70;;;8.70;99.90;;;;;;5093215;27;20035;-46
2022/12/25 13:54:17;;;;;;;19.95;9.80;;;8.70;99.90;;;;;;5093385;28;20043;-44
2022/12/25 13:56:51;;;;;;;16.13;8.70;;;8.50;99.90;;;;;;5091476;27;20063;-50
2022/12/25 13:59:20;;;;;;;20.30;8.65;;;9.30;99.90;;;;;;5093126;27;20070;-48
2022/12/25 14:01:47;;;;;;;17.83;8.50;;;8.80;99.90;;;;;;5093633;27;20444;-45
2022/12/25 14:04:16;;;;;;;18.55;8.68;;;8.60;99.90;;;;;;5094297;28;20039;-49
2022/12/25 14:06:41;;;;;;;21.80;10.13;;;8.80;99.90;;;;;;5093376;27;20403;-49
2022/12/25 14:09:10;;;;;;;17.70;9.43;;;8.80;99.90;;;;;;5093734;28;20040;-49
2022/12/25 14:11:37;;;;;;;14.98;7.85;;;8.70;99.90;;;;;;5093663;28;20637;-45
2022/12/25 14:14:29;;;;;;;22.48;9.48;;;8.70;99.90;;;;;;5093062;28;20039;-44
2022/12/25 14:16:57;;;;;;;19.73;9.57;;;10.80;99.90;;;;;;5091316;28;20503;-46
2022/12/25 14:19:33;;;;;;;16.40;8.65;;;10.20;99.90;;;;;;5092052;28;20043;-47
2022/12/25 14:22:09;;;;;;;18.52;9.40;;;8.80;99.90;;;;;;5093464;28;20905;-44
2022/12/25 14:24:37;;;;;;;16.33;9.13;;;8.70;99.90;;;;;;5093544;27;20461;-45
2022/12/25 14:27:17;;;;;;;16.90;9.52;;;8.60;99.90;;;;;;5092112;27;20538;-46
2022/12/25 14:29:45;;;;;;;18.33;9.13;;;8.60;99.90;;;;;;5093473;27;20079;-49
2022/12/25 14:32:17;;;;;;;15.30;9.55;;;8.80;99.90;;;;;;5092060;27;20050;-45
2022/12/25 14:34:46;;;;;;;15.95;9.93;;;8.70;99.90;;;;;;5093635;27;20462;-47
2022/12/25 14:37:17;;;;;;;18.38;9.98;;;8.60;99.90;;;;;;5092285;28;20046;-47
2022/12/25 14:39:46;;;;;;;17.88;9.88;;;8.80;99.90;;;;;;5093465;27;20057;-46
2022/12/25 14:42:12;;;;;;;17.20;10.77;;;8.70;99.90;;;;;;5092557;27;20058;-46
2022/12/25 14:44:39;;;;;;;19.23;11.48;;;8.70;99.90;;;;;;5093038;27;20047;-47